sensor_id;sensor_type;location;lat;lon;timestamp;P1;durP1;ratioP1;P2;durP2;ratioP2
66721;SDS011;53633;49.932;10.884;2022-08-19T00:01:43;22.92;;;14.75;;
66721;SDS011;53633;49.932;10.884;2022-08-19T00:04:20;24.70;;;15.50;;
66721;SDS011;53633;49.932;10.884;2022-08-19T00:06:48;25.25;;;16.70;;
66721;SDS011;53633;49.932;10.884;2022-08-19T00:09:16;23.02;;;15.00;;
66721;SDS011;53633;49.932;10.884;2022-08-19T00:11:43;24.50;;;15.63;;
66721;SDS011;53633;49.932;10.884;2022-08-19T00:14:11;25.20;;;15.48;;
66721;SDS011;53633;49.932;10.884;2022-08-19T00:16:40;23.57;;;14.77;;
66721;SDS011;53633;49.932;10.884;2022-08-19T00:19:07;25.05;;;15.27;;
66721;SDS011;53633;49.932;10.884;2022-08-19T00:21:36;21.33;;;13.85;;
66721;SDS011;53633;49.932;10.884;2022-08-19T00:24:03;22.27;;;14.48;;
66721;SDS011;53633;49.932;10.884;2022-08-19T00:26:30;24.77;;;15.07;;
66721;SDS011;53633;49.932;10.884;2022-08-19T00:28:57;25.63;;;15.87;;
66721;SDS011;53633;49.932;10.884;2022-08-19T00:31:23;26.52;;;16.70;;
66721;SDS011;53633;49.932;10.884;2022-08-19T00:33:50;26.20;;;16.10;;
66721;SDS011;53633;49.932;10.884;2022-08-19T00:36:17;23.83;;;15.30;;
66721;SDS011;53633;49.932;10.884;2022-08-19T00:38:46;25.30;;;15.85;;
66721;SDS011;53633;49.932;10.884;2022-08-19T00:41:14;25.97;;;16.20;;
66721;SDS011;53633;49.932;10.884;2022-08-19T00:43:41;25.17;;;15.77;;
66721;SDS011;53633;49.932;10.884;2022-08-19T00:46:08;26.17;;;15.30;;
66721;SDS011;53633;49.932;10.884;2022-08-19T00:48:35;23.60;;;15.77;;
66721;SDS011;53633;49.932;10.884;2022-08-19T00:51:03;26.58;;;16.92;;
66721;SDS011;53633;49.932;10.884;2022-08-19T00:53:30;26.67;;;16.90;;
66721;SDS011;53633;49.932;10.884;2022-08-19T00:55:59;26.55;;;16.40;;
66721;SDS011;53633;49.932;10.884;2022-08-19T00:58:29;27.48;;;16.52;;
66721;SDS011;53633;49.932;10.884;2022-08-19T01:00:58;29.38;;;17.30;;
66721;SDS011;53633;49.932;10.884;2022-08-19T01:03:25;30.38;;;18.48;;
66721;SDS011;53633;49.932;10.884;2022-08-19T01:05:51;31.80;;;17.73;;
66721;SDS011;53633;49.932;10.884;2022-08-19T01:08:20;30.70;;;17.48;;
66721;SDS011;53633;49.932;10.884;2022-08-19T01:10:48;32.90;;;19.60;;
66721;SDS011;53633;49.932;10.884;2022-08-19T01:13:19;33.17;;;20.08;;
66721;SDS011;53633;49.932;10.884;2022-08-19T01:15:52;30.30;;;18.23;;
66721;SDS011;53633;49.932;10.884;2022-08-19T01:18:22;31.67;;;18.13;;
66721;SDS011;53633;49.932;10.884;2022-08-19T01:20:52;29.20;;;16.73;;
66721;SDS011;53633;49.932;10.884;2022-08-19T01:23:23;30.20;;;18.17;;
66721;SDS011;53633;49.932;10.884;2022-08-19T01:25:51;31.48;;;17.85;;
66721;SDS011;53633;49.932;10.884;2022-08-19T01:28:20;30.50;;;18.33;;
66721;SDS011;53633;49.932;10.884;2022-08-19T01:31:05;30.07;;;18.00;;
66721;SDS011;53633;49.932;10.884;2022-08-19T01:33:33;34.17;;;19.75;;
66721;SDS011;53633;49.932;10.884;2022-08-19T01:36:04;33.03;;;18.60;;
66721;SDS011;53633;49.932;10.884;2022-08-19T01:38:35;30.75;;;18.38;;
66721;SDS011;53633;49.932;10.884;2022-08-19T01:41:09;32.47;;;18.85;;
66721;SDS011;53633;49.932;10.884;2022-08-19T01:43:36;32.43;;;19.80;;
66721;SDS011;53633;49.932;10.884;2022-08-19T01:46:23;32.35;;;18.92;;
66721;SDS011;53633;49.932;10.884;2022-08-19T01:48:50;31.60;;;19.63;;
66721;SDS011;53633;49.932;10.884;2022-08-19T01:51:16;31.73;;;18.88;;
66721;SDS011;53633;49.932;10.884;2022-08-19T01:53:46;32.08;;;19.33;;
66721;SDS011;53633;49.932;10.884;2022-08-19T01:56:13;32.20;;;19.30;;
66721;SDS011;53633;49.932;10.884;2022-08-19T01:58:41;32.20;;;18.50;;
66721;SDS011;53633;49.932;10.884;2022-08-19T02:01:10;32.55;;;18.83;;
66721;SDS011;53633;49.932;10.884;2022-08-19T02:03:36;33.00;;;19.20;;
66721;SDS011;53633;49.932;10.884;2022-08-19T02:06:03;28.73;;;17.48;;
66721;SDS011;53633;49.932;10.884;2022-08-19T02:08:31;27.40;;;16.70;;
66721;SDS011;53633;49.932;10.884;2022-08-19T02:11:03;29.58;;;18.00;;
66721;SDS011;53633;49.932;10.884;2022-08-19T02:13:30;31.20;;;18.23;;
66721;SDS011;53633;49.932;10.884;2022-08-19T02:15:57;32.88;;;19.02;;
66721;SDS011;53633;49.932;10.884;2022-08-19T02:18:25;29.20;;;17.40;;
66721;SDS011;53633;49.932;10.884;2022-08-19T02:20:53;33.37;;;18.40;;
66721;SDS011;53633;49.932;10.884;2022-08-19T02:23:20;31.85;;;18.60;;
66721;SDS011;53633;49.932;10.884;2022-08-19T02:25:47;29.55;;;16.48;;
66721;SDS011;53633;49.932;10.884;2022-08-19T02:28:15;27.65;;;16.63;;
66721;SDS011;53633;49.932;10.884;2022-08-19T02:30:44;30.45;;;18.13;;
66721;SDS011;53633;49.932;10.884;2022-08-19T02:33:12;29.20;;;16.87;;
66721;SDS011;53633;49.932;10.884;2022-08-19T02:35:40;30.25;;;17.38;;
66721;SDS011;53633;49.932;10.884;2022-08-19T02:38:08;29.75;;;16.50;;
66721;SDS011;53633;49.932;10.884;2022-08-19T02:40:34;28.73;;;16.50;;
66721;SDS011;53633;49.932;10.884;2022-08-19T02:43:03;30.23;;;18.05;;
66721;SDS011;53633;49.932;10.884;2022-08-19T02:45:33;29.00;;;17.50;;
66721;SDS011;53633;49.932;10.884;2022-08-19T02:48:05;32.80;;;17.05;;
66721;SDS011;53633;49.932;10.884;2022-08-19T02:50:47;30.75;;;18.30;;
66721;SDS011;53633;49.932;10.884;2022-08-19T02:53:18;30.75;;;18.13;;
66721;SDS011;53633;49.932;10.884;2022-08-19T02:55:46;31.73;;;18.77;;
66721;SDS011;53633;49.932;10.884;2022-08-19T02:58:13;33.77;;;19.37;;
66721;SDS011;53633;49.932;10.884;2022-08-19T03:00:43;34.13;;;19.27;;
66721;SDS011;53633;49.932;10.884;2022-08-19T03:03:11;33.42;;;18.35;;
66721;SDS011;53633;49.932;10.884;2022-08-19T03:05:38;35.80;;;20.00;;
66721;SDS011;53633;49.932;10.884;2022-08-19T03:08:21;29.80;;;17.80;;
66721;SDS011;53633;49.932;10.884;2022-08-19T03:10:48;34.73;;;19.47;;
66721;SDS011;53633;49.932;10.884;2022-08-19T03:13:15;31.42;;;18.40;;
66721;SDS011;53633;49.932;10.884;2022-08-19T03:15:46;32.67;;;18.42;;
66721;SDS011;53633;49.932;10.884;2022-08-19T03:18:13;36.35;;;19.50;;
66721;SDS011;53633;49.932;10.884;2022-08-19T03:20:43;32.92;;;18.50;;
66721;SDS011;53633;49.932;10.884;2022-08-19T03:23:11;34.13;;;19.93;;
66721;SDS011;53633;49.932;10.884;2022-08-19T03:25:38;32.97;;;18.65;;
66721;SDS011;53633;49.932;10.884;2022-08-19T03:28:06;33.72;;;19.02;;
66721;SDS011;53633;49.932;10.884;2022-08-19T03:30:33;34.15;;;19.35;;
66721;SDS011;53633;49.932;10.884;2022-08-19T03:33:00;33.45;;;19.58;;
66721;SDS011;53633;49.932;10.884;2022-08-19T03:35:30;36.53;;;19.83;;
66721;SDS011;53633;49.932;10.884;2022-08-19T03:37:57;31.70;;;18.38;;
66721;SDS011;53633;49.932;10.884;2022-08-19T03:40:24;28.27;;;17.45;;
66721;SDS011;53633;49.932;10.884;2022-08-19T03:42:51;32.90;;;18.73;;
66721;SDS011;53633;49.932;10.884;2022-08-19T03:45:21;30.30;;;17.30;;
66721;SDS011;53633;49.932;10.884;2022-08-19T03:47:48;29.90;;;17.53;;
66721;SDS011;53633;49.932;10.884;2022-08-19T03:50:16;31.20;;;17.30;;
66721;SDS011;53633;49.932;10.884;2022-08-19T03:52:47;30.30;;;17.42;;
66721;SDS011;53633;49.932;10.884;2022-08-19T03:55:14;31.23;;;18.55;;
66721;SDS011;53633;49.932;10.884;2022-08-19T03:57:41;27.30;;;16.55;;
66721;SDS011;53633;49.932;10.884;2022-08-19T04:00:08;29.33;;;17.47;;
66721;SDS011;53633;49.932;10.884;2022-08-19T04:02:39;30.75;;;18.15;;
66721;SDS011;53633;49.932;10.884;2022-08-19T04:05:06;26.50;;;16.02;;
66721;SDS011;53633;49.932;10.884;2022-08-19T04:07:34;31.55;;;17.63;;
66721;SDS011;53633;49.932;10.884;2022-08-19T04:10:02;28.45;;;16.75;;
66721;SDS011;53633;49.932;10.884;2022-08-19T04:12:29;28.03;;;16.07;;
66721;SDS011;53633;49.932;10.884;2022-08-19T04:14:55;29.40;;;16.95;;
66721;SDS011;53633;49.932;10.884;2022-08-19T04:17:22;28.35;;;15.82;;
66721;SDS011;53633;49.932;10.884;2022-08-19T04:19:49;25.55;;;15.80;;
66721;SDS011;53633;49.932;10.884;2022-08-19T04:22:16;28.30;;;16.63;;
66721;SDS011;53633;49.932;10.884;2022-08-19T04:24:44;30.83;;;15.80;;
66721;SDS011;53633;49.932;10.884;2022-08-19T04:27:10;28.27;;;15.73;;
66721;SDS011;53633;49.932;10.884;2022-08-19T04:29:37;27.00;;;16.08;;
66721;SDS011;53633;49.932;10.884;2022-08-19T04:32:04;28.85;;;16.60;;
66721;SDS011;53633;49.932;10.884;2022-08-19T04:34:35;28.95;;;16.58;;
66721;SDS011;53633;49.932;10.884;2022-08-19T04:37:22;29.60;;;16.70;;
66721;SDS011;53633;49.932;10.884;2022-08-19T04:39:50;30.10;;;16.73;;
66721;SDS011;53633;49.932;10.884;2022-08-19T04:42:24;30.80;;;17.35;;
66721;SDS011;53633;49.932;10.884;2022-08-19T04:44:56;32.70;;;18.33;;
66721;SDS011;53633;49.932;10.884;2022-08-19T04:47:24;34.72;;;18.67;;
66721;SDS011;53633;49.932;10.884;2022-08-19T04:50:10;32.47;;;17.37;;
66721;SDS011;53633;49.932;10.884;2022-08-19T04:52:37;33.40;;;18.27;;
66721;SDS011;53633;49.932;10.884;2022-08-19T04:55:06;30.65;;;17.55;;
66721;SDS011;53633;49.932;10.884;2022-08-19T04:57:33;33.30;;;17.27;;
66721;SDS011;53633;49.932;10.884;2022-08-19T05:00:00;32.83;;;17.75;;
66721;SDS011;53633;49.932;10.884;2022-08-19T05:02:27;31.83;;;18.07;;
66721;SDS011;53633;49.932;10.884;2022-08-19T05:04:56;31.92;;;18.05;;
66721;SDS011;53633;49.932;10.884;2022-08-19T05:07:23;34.53;;;18.75;;
66721;SDS011;53633;49.932;10.884;2022-08-19T05:09:49;33.50;;;18.75;;
66721;SDS011;53633;49.932;10.884;2022-08-19T05:12:25;33.90;;;19.17;;
66721;SDS011;53633;49.932;10.884;2022-08-19T05:14:55;29.90;;;16.53;;
66721;SDS011;53633;49.932;10.884;2022-08-19T05:17:22;31.73;;;18.13;;
66721;SDS011;53633;49.932;10.884;2022-08-19T05:19:54;33.40;;;18.90;;
66721;SDS011;53633;49.932;10.884;2022-08-19T05:22:21;38.25;;;19.67;;
66721;SDS011;53633;49.932;10.884;2022-08-19T05:24:47;30.58;;;18.55;;
66721;SDS011;53633;49.932;10.884;2022-08-19T05:27:35;28.13;;;16.90;;
66721;SDS011;53633;49.932;10.884;2022-08-19T05:30:02;32.75;;;17.38;;
66721;SDS011;53633;49.932;10.884;2022-08-19T05:32:30;31.08;;;17.38;;
66721;SDS011;53633;49.932;10.884;2022-08-19T05:34:57;30.90;;;17.55;;
66721;SDS011;53633;49.932;10.884;2022-08-19T05:37:24;34.95;;;17.83;;
66721;SDS011;53633;49.932;10.884;2022-08-19T05:39:50;32.23;;;18.97;;
66721;SDS011;53633;49.932;10.884;2022-08-19T05:42:17;31.50;;;17.48;;
66721;SDS011;53633;49.932;10.884;2022-08-19T05:44:45;31.60;;;18.02;;
66721;SDS011;53633;49.932;10.884;2022-08-19T05:47:12;33.03;;;18.95;;
66721;SDS011;53633;49.932;10.884;2022-08-19T05:49:40;33.30;;;17.77;;
66721;SDS011;53633;49.932;10.884;2022-08-19T05:52:08;32.93;;;18.37;;
66721;SDS011;53633;49.932;10.884;2022-08-19T05:54:37;33.80;;;18.58;;
66721;SDS011;53633;49.932;10.884;2022-08-19T05:57:05;31.40;;;18.13;;
66721;SDS011;53633;49.932;10.884;2022-08-19T05:59:34;30.13;;;17.58;;
66721;SDS011;53633;49.932;10.884;2022-08-19T06:02:05;31.85;;;16.73;;
66721;SDS011;53633;49.932;10.884;2022-08-19T06:04:33;29.87;;;16.57;;
66721;SDS011;53633;49.932;10.884;2022-08-19T06:07:00;31.95;;;17.65;;
66721;SDS011;53633;49.932;10.884;2022-08-19T06:09:38;30.30;;;17.85;;
66721;SDS011;53633;49.932;10.884;2022-08-19T06:12:05;28.63;;;16.17;;
66721;SDS011;53633;49.932;10.884;2022-08-19T06:14:32;27.40;;;15.82;;
66721;SDS011;53633;49.932;10.884;2022-08-19T06:17:07;27.67;;;15.67;;
66721;SDS011;53633;49.932;10.884;2022-08-19T06:19:34;28.75;;;16.75;;
66721;SDS011;53633;49.932;10.884;2022-08-19T06:22:06;27.52;;;16.30;;
66721;SDS011;53633;49.932;10.884;2022-08-19T06:24:34;28.02;;;16.27;;
66721;SDS011;53633;49.932;10.884;2022-08-19T06:27:01;28.13;;;16.38;;
66721;SDS011;53633;49.932;10.884;2022-08-19T06:29:28;27.73;;;16.20;;
66721;SDS011;53633;49.932;10.884;2022-08-19T06:31:56;27.58;;;16.35;;
66721;SDS011;53633;49.932;10.884;2022-08-19T06:34:26;27.50;;;16.20;;
66721;SDS011;53633;49.932;10.884;2022-08-19T06:36:54;27.10;;;15.07;;
66721;SDS011;53633;49.932;10.884;2022-08-19T06:39:23;26.90;;;15.98;;
66721;SDS011;53633;49.932;10.884;2022-08-19T06:41:52;29.07;;;16.47;;
66721;SDS011;53633;49.932;10.884;2022-08-19T06:44:25;25.67;;;14.85;;
66721;SDS011;53633;49.932;10.884;2022-08-19T06:46:55;27.90;;;15.75;;
66721;SDS011;53633;49.932;10.884;2022-08-19T06:49:23;25.45;;;15.55;;
66721;SDS011;53633;49.932;10.884;2022-08-19T06:51:51;25.73;;;15.57;;
66721;SDS011;53633;49.932;10.884;2022-08-19T06:54:18;24.50;;;15.10;;
66721;SDS011;53633;49.932;10.884;2022-08-19T06:56:45;25.73;;;15.95;;
66721;SDS011;53633;49.932;10.884;2022-08-19T06:59:13;26.63;;;15.13;;
66721;SDS011;53633;49.932;10.884;2022-08-19T07:01:42;26.58;;;14.60;;
66721;SDS011;53633;49.932;10.884;2022-08-19T07:04:10;22.98;;;14.77;;
66721;SDS011;53633;49.932;10.884;2022-08-19T07:06:37;26.10;;;15.27;;
66721;SDS011;53633;49.932;10.884;2022-08-19T07:09:12;28.25;;;16.90;;
66721;SDS011;53633;49.932;10.884;2022-08-19T07:11:44;28.38;;;16.10;;
66721;SDS011;53633;49.932;10.884;2022-08-19T07:14:12;29.75;;;17.10;;
66721;SDS011;53633;49.932;10.884;2022-08-19T07:16:44;26.83;;;16.52;;
66721;SDS011;53633;49.932;10.884;2022-08-19T07:19:12;28.60;;;16.03;;
66721;SDS011;53633;49.932;10.884;2022-08-19T07:21:41;27.13;;;15.27;;
66721;SDS011;53633;49.932;10.884;2022-08-19T07:24:09;27.17;;;16.42;;
66721;SDS011;53633;49.932;10.884;2022-08-19T07:26:38;24.92;;;15.07;;
66721;SDS011;53633;49.932;10.884;2022-08-19T07:29:08;27.83;;;15.13;;
66721;SDS011;53633;49.932;10.884;2022-08-19T07:31:35;24.77;;;15.17;;
66721;SDS011;53633;49.932;10.884;2022-08-19T07:34:04;25.80;;;15.77;;
66721;SDS011;53633;49.932;10.884;2022-08-19T07:36:33;26.58;;;15.93;;
66721;SDS011;53633;49.932;10.884;2022-08-19T07:39:03;26.17;;;14.48;;
66721;SDS011;53633;49.932;10.884;2022-08-19T07:41:34;26.08;;;15.13;;
66721;SDS011;53633;49.932;10.884;2022-08-19T07:44:01;24.17;;;14.33;;
66721;SDS011;53633;49.932;10.884;2022-08-19T07:46:28;23.85;;;14.27;;
66721;SDS011;53633;49.932;10.884;2022-08-19T07:48:55;23.80;;;14.82;;
66721;SDS011;53633;49.932;10.884;2022-08-19T07:51:22;22.98;;;14.70;;
66721;SDS011;53633;49.932;10.884;2022-08-19T07:54:02;25.50;;;15.48;;
66721;SDS011;53633;49.932;10.884;2022-08-19T07:56:29;22.93;;;14.70;;
66721;SDS011;53633;49.932;10.884;2022-08-19T07:58:57;24.08;;;15.13;;
66721;SDS011;53633;49.932;10.884;2022-08-19T08:01:25;23.67;;;14.23;;
66721;SDS011;53633;49.932;10.884;2022-08-19T08:03:54;23.60;;;14.25;;
66721;SDS011;53633;49.932;10.884;2022-08-19T08:06:23;23.73;;;14.65;;
66721;SDS011;53633;49.932;10.884;2022-08-19T08:08:53;23.00;;;14.07;;
66721;SDS011;53633;49.932;10.884;2022-08-19T08:11:23;22.38;;;14.85;;
66721;SDS011;53633;49.932;10.884;2022-08-19T08:13:50;25.25;;;15.32;;
66721;SDS011;53633;49.932;10.884;2022-08-19T08:16:32;22.52;;;13.93;;
66721;SDS011;53633;49.932;10.884;2022-08-19T08:19:05;24.27;;;14.63;;
66721;SDS011;53633;49.932;10.884;2022-08-19T08:21:46;24.63;;;13.17;;
66721;SDS011;53633;49.932;10.884;2022-08-19T08:24:13;22.95;;;14.20;;
66721;SDS011;53633;49.932;10.884;2022-08-19T08:26:40;22.13;;;13.02;;
66721;SDS011;53633;49.932;10.884;2022-08-19T08:29:17;25.33;;;14.23;;
66721;SDS011;53633;49.932;10.884;2022-08-19T08:31:47;22.23;;;13.32;;
66721;SDS011;53633;49.932;10.884;2022-08-19T08:34:23;22.60;;;14.03;;
66721;SDS011;53633;49.932;10.884;2022-08-19T08:36:50;23.33;;;13.20;;
66721;SDS011;53633;49.932;10.884;2022-08-19T08:39:20;20.17;;;12.65;;
66721;SDS011;53633;49.932;10.884;2022-08-19T08:41:50;19.95;;;12.85;;
66721;SDS011;53633;49.932;10.884;2022-08-19T08:44:20;22.85;;;13.55;;
66721;SDS011;53633;49.932;10.884;2022-08-19T08:46:53;19.53;;;12.73;;
66721;SDS011;53633;49.932;10.884;2022-08-19T08:49:26;18.63;;;12.25;;
66721;SDS011;53633;49.932;10.884;2022-08-19T08:52:02;19.27;;;11.68;;
66721;SDS011;53633;49.932;10.884;2022-08-19T08:54:32;22.38;;;14.02;;
66721;SDS011;53633;49.932;10.884;2022-08-19T08:57:02;21.35;;;13.07;;
66721;SDS011;53633;49.932;10.884;2022-08-19T08:59:35;16.93;;;11.17;;
66721;SDS011;53633;49.932;10.884;2022-08-19T09:02:06;18.70;;;12.35;;
66721;SDS011;53633;49.932;10.884;2022-08-19T09:04:34;17.65;;;11.50;;
66721;SDS011;53633;49.932;10.884;2022-08-19T09:07:06;19.80;;;12.48;;
66721;SDS011;53633;49.932;10.884;2022-08-19T09:10:03;21.58;;;11.43;;
66721;SDS011;53633;49.932;10.884;2022-08-19T09:12:43;18.80;;;11.43;;
66721;SDS011;53633;49.932;10.884;2022-08-19T09:15:22;15.50;;;10.40;;
66721;SDS011;53633;49.932;10.884;2022-08-19T09:18:01;17.52;;;10.75;;
66721;SDS011;53633;49.932;10.884;2022-08-19T09:20:32;16.55;;;10.95;;
66721;SDS011;53633;49.932;10.884;2022-08-19T09:22:59;15.23;;;10.10;;
66721;SDS011;53633;49.932;10.884;2022-08-19T09:25:26;15.77;;;10.53;;
66721;SDS011;53633;49.932;10.884;2022-08-19T09:27:55;17.60;;;10.45;;
66721;SDS011;53633;49.932;10.884;2022-08-19T09:30:31;15.75;;;10.88;;
66721;SDS011;53633;49.932;10.884;2022-08-19T09:33:01;15.73;;;10.50;;
66721;SDS011;53633;49.932;10.884;2022-08-19T09:35:28;15.75;;;10.77;;
66721;SDS011;53633;49.932;10.884;2022-08-19T09:37:57;17.03;;;11.17;;
66721;SDS011;53633;49.932;10.884;2022-08-19T09:40:25;15.45;;;10.68;;
66721;SDS011;53633;49.932;10.884;2022-08-19T09:42:56;17.60;;;11.68;;
66721;SDS011;53633;49.932;10.884;2022-08-19T09:45:23;21.98;;;11.80;;
66721;SDS011;53633;49.932;10.884;2022-08-19T09:47:50;19.02;;;12.38;;
66721;SDS011;53633;49.932;10.884;2022-08-19T09:50:21;21.37;;;12.50;;
66721;SDS011;53633;49.932;10.884;2022-08-19T09:52:49;20.02;;;12.35;;
66721;SDS011;53633;49.932;10.884;2022-08-19T09:55:22;20.63;;;13.73;;
66721;SDS011;53633;49.932;10.884;2022-08-19T09:57:56;21.42;;;13.40;;
66721;SDS011;53633;49.932;10.884;2022-08-19T10:00:23;19.52;;;13.02;;
66721;SDS011;53633;49.932;10.884;2022-08-19T10:02:49;21.80;;;14.23;;
66721;SDS011;53633;49.932;10.884;2022-08-19T10:05:18;21.27;;;13.02;;
66721;SDS011;53633;49.932;10.884;2022-08-19T10:07:53;19.35;;;12.85;;
66721;SDS011;53633;49.932;10.884;2022-08-19T10:10:22;22.08;;;12.43;;
66721;SDS011;53633;49.932;10.884;2022-08-19T10:12:49;23.70;;;13.77;;
66721;SDS011;53633;49.932;10.884;2022-08-19T10:15:16;19.90;;;13.20;;
66721;SDS011;53633;49.932;10.884;2022-08-19T10:17:54;22.55;;;13.55;;
66721;SDS011;53633;49.932;10.884;2022-08-19T10:20:21;21.05;;;12.93;;
66721;SDS011;53633;49.932;10.884;2022-08-19T10:22:48;20.73;;;13.02;;
66721;SDS011;53633;49.932;10.884;2022-08-19T10:25:18;20.27;;;13.52;;
66721;SDS011;53633;49.932;10.884;2022-08-19T10:27:45;19.83;;;13.30;;
66721;SDS011;53633;49.932;10.884;2022-08-19T10:30:16;21.60;;;13.40;;
66721;SDS011;53633;49.932;10.884;2022-08-19T10:32:45;22.65;;;13.93;;
66721;SDS011;53633;49.932;10.884;2022-08-19T10:35:12;22.02;;;14.63;;
66721;SDS011;53633;49.932;10.884;2022-08-19T10:37:47;24.48;;;14.27;;
66721;SDS011;53633;49.932;10.884;2022-08-19T10:40:24;22.07;;;14.27;;
66721;SDS011;53633;49.932;10.884;2022-08-19T10:42:52;19.77;;;13.93;;
66721;SDS011;53633;49.932;10.884;2022-08-19T10:45:18;21.10;;;14.30;;
66721;SDS011;53633;49.932;10.884;2022-08-19T10:47:45;22.42;;;14.05;;
66721;SDS011;53633;49.932;10.884;2022-08-19T10:50:12;21.30;;;13.77;;
66721;SDS011;53633;49.932;10.884;2022-08-19T10:52:39;21.40;;;14.63;;
66721;SDS011;53633;49.932;10.884;2022-08-19T10:55:15;23.50;;;15.15;;
66721;SDS011;53633;49.932;10.884;2022-08-19T10:57:44;21.23;;;13.32;;
66721;SDS011;53633;49.932;10.884;2022-08-19T11:00:27;21.55;;;13.05;;
66721;SDS011;53633;49.932;10.884;2022-08-19T11:02:54;18.55;;;12.85;;
66721;SDS011;53633;49.932;10.884;2022-08-19T11:05:21;20.43;;;13.13;;
66721;SDS011;53633;49.932;10.884;2022-08-19T11:07:49;19.95;;;13.07;;
66721;SDS011;53633;49.932;10.884;2022-08-19T11:10:17;17.67;;;12.23;;
66721;SDS011;53633;49.932;10.884;2022-08-19T11:12:48;19.63;;;13.13;;
66721;SDS011;53633;49.932;10.884;2022-08-19T11:15:15;19.00;;;13.30;;
66721;SDS011;53633;49.932;10.884;2022-08-19T11:17:42;17.83;;;12.27;;
66721;SDS011;53633;49.932;10.884;2022-08-19T11:20:10;20.67;;;13.32;;
66721;SDS011;53633;49.932;10.884;2022-08-19T11:22:37;19.85;;;12.65;;
66721;SDS011;53633;49.932;10.884;2022-08-19T11:25:07;16.83;;;12.25;;
66721;SDS011;53633;49.932;10.884;2022-08-19T11:27:37;18.23;;;12.57;;
66721;SDS011;53633;49.932;10.884;2022-08-19T11:30:07;19.73;;;11.87;;
66721;SDS011;53633;49.932;10.884;2022-08-19T11:32:38;17.80;;;11.82;;
66721;SDS011;53633;49.932;10.884;2022-08-19T11:35:05;20.13;;;13.13;;
66721;SDS011;53633;49.932;10.884;2022-08-19T11:37:32;19.65;;;11.82;;
66721;SDS011;53633;49.932;10.884;2022-08-19T11:39:59;15.50;;;10.68;;
66721;SDS011;53633;49.932;10.884;2022-08-19T11:42:26;16.40;;;11.40;;
66721;SDS011;53633;49.932;10.884;2022-08-19T11:44:53;16.90;;;10.38;;
66721;SDS011;53633;49.932;10.884;2022-08-19T11:47:21;16.08;;;10.90;;
66721;SDS011;53633;49.932;10.884;2022-08-19T11:49:48;16.63;;;10.65;;
66721;SDS011;53633;49.932;10.884;2022-08-19T11:52:14;14.82;;;10.10;;
66721;SDS011;53633;49.932;10.884;2022-08-19T11:54:41;15.90;;;10.80;;
66721;SDS011;53633;49.932;10.884;2022-08-19T11:57:08;16.60;;;10.60;;
66721;SDS011;53633;49.932;10.884;2022-08-19T11:59:34;16.55;;;10.40;;
66721;SDS011;53633;49.932;10.884;2022-08-19T12:02:01;14.00;;;9.50;;
66721;SDS011;53633;49.932;10.884;2022-08-19T12:04:29;15.20;;;9.52;;
66721;SDS011;53633;49.932;10.884;2022-08-19T12:06:56;15.07;;;9.60;;
66721;SDS011;53633;49.932;10.884;2022-08-19T12:09:22;16.55;;;10.02;;
66721;SDS011;53633;49.932;10.884;2022-08-19T12:11:49;17.33;;;9.95;;
66721;SDS011;53633;49.932;10.884;2022-08-19T12:14:16;14.45;;;9.43;;
66721;SDS011;53633;49.932;10.884;2022-08-19T12:16:44;14.82;;;9.98;;
66721;SDS011;53633;49.932;10.884;2022-08-19T12:19:17;14.63;;;9.50;;
66721;SDS011;53633;49.932;10.884;2022-08-19T12:21:49;12.57;;;8.60;;
66721;SDS011;53633;49.932;10.884;2022-08-19T12:24:16;14.88;;;9.93;;
66721;SDS011;53633;49.932;10.884;2022-08-19T12:26:43;15.05;;;10.55;;
66721;SDS011;53633;49.932;10.884;2022-08-19T12:29:18;15.05;;;10.82;;
66721;SDS011;53633;49.932;10.884;2022-08-19T12:31:49;15.43;;;11.07;;
66721;SDS011;53633;49.932;10.884;2022-08-19T12:34:16;13.90;;;10.23;;
66721;SDS011;53633;49.932;10.884;2022-08-19T12:36:43;17.55;;;12.15;;
66721;SDS011;53633;49.932;10.884;2022-08-19T12:39:11;15.68;;;11.52;;
66721;SDS011;53633;49.932;10.884;2022-08-19T12:41:38;17.45;;;11.43;;
66721;SDS011;53633;49.932;10.884;2022-08-19T12:44:20;13.43;;;9.13;;
66721;SDS011;53633;49.932;10.884;2022-08-19T12:46:55;14.95;;;10.45;;
66721;SDS011;53633;49.932;10.884;2022-08-19T12:49:22;18.85;;;11.15;;
66721;SDS011;53633;49.932;10.884;2022-08-19T12:52:09;17.85;;;12.10;;
66721;SDS011;53633;49.932;10.884;2022-08-19T12:54:37;22.27;;;11.45;;
66721;SDS011;53633;49.932;10.884;2022-08-19T12:57:05;18.40;;;11.07;;
66721;SDS011;53633;49.932;10.884;2022-08-19T12:59:32;18.13;;;10.68;;
66721;SDS011;53633;49.932;10.884;2022-08-19T13:01:59;18.25;;;11.20;;
66721;SDS011;53633;49.932;10.884;2022-08-19T13:04:26;17.30;;;10.13;;
66721;SDS011;53633;49.932;10.884;2022-08-19T13:06:52;15.15;;;9.50;;
66721;SDS011;53633;49.932;10.884;2022-08-19T13:09:19;15.67;;;9.50;;
66721;SDS011;53633;49.932;10.884;2022-08-19T13:11:47;16.73;;;10.60;;
66721;SDS011;53633;49.932;10.884;2022-08-19T13:14:14;16.08;;;10.32;;
66721;SDS011;53633;49.932;10.884;2022-08-19T13:16:40;20.30;;;13.40;;
66721;SDS011;53633;49.932;10.884;2022-08-19T13:19:07;20.70;;;12.45;;
66721;SDS011;53633;49.932;10.884;2022-08-19T13:21:33;20.33;;;12.83;;
66721;SDS011;53633;49.932;10.884;2022-08-19T13:24:01;18.67;;;11.52;;
66721;SDS011;53633;49.932;10.884;2022-08-19T13:26:28;16.38;;;10.05;;
66721;SDS011;53633;49.932;10.884;2022-08-19T13:28:57;19.40;;;10.73;;
66721;SDS011;53633;49.932;10.884;2022-08-19T13:31:24;17.95;;;11.10;;
66721;SDS011;53633;49.932;10.884;2022-08-19T13:33:53;15.17;;;9.57;;
66721;SDS011;53633;49.932;10.884;2022-08-19T13:36:19;16.38;;;10.85;;
66721;SDS011;53633;49.932;10.884;2022-08-19T13:38:46;14.98;;;9.50;;
66721;SDS011;53633;49.932;10.884;2022-08-19T13:41:13;16.63;;;9.63;;
66721;SDS011;53633;49.932;10.884;2022-08-19T13:43:40;15.88;;;8.57;;
66721;SDS011;53633;49.932;10.884;2022-08-19T13:46:09;17.43;;;10.10;;
66721;SDS011;53633;49.932;10.884;2022-08-19T13:48:36;17.67;;;11.25;;
66721;SDS011;53633;49.932;10.884;2022-08-19T13:51:04;16.80;;;10.88;;
66721;SDS011;53633;49.932;10.884;2022-08-19T13:53:31;14.73;;;9.98;;
66721;SDS011;53633;49.932;10.884;2022-08-19T13:55:58;13.30;;;8.20;;
66721;SDS011;53633;49.932;10.884;2022-08-19T13:58:24;10.77;;;6.00;;
66721;SDS011;53633;49.932;10.884;2022-08-19T14:00:51;10.20;;;5.10;;
66721;SDS011;53633;49.932;10.884;2022-08-19T14:03:19;9.13;;;4.97;;
66721;SDS011;53633;49.932;10.884;2022-08-19T14:05:46;9.60;;;5.15;;
66721;SDS011;53633;49.932;10.884;2022-08-19T14:08:13;10.00;;;5.07;;
66721;SDS011;53633;49.932;10.884;2022-08-19T14:10:40;8.10;;;4.57;;
66721;SDS011;53633;49.932;10.884;2022-08-19T14:13:07;9.57;;;5.25;;
66721;SDS011;53633;49.932;10.884;2022-08-19T14:15:33;7.90;;;4.40;;
66721;SDS011;53633;49.932;10.884;2022-08-19T14:18:00;8.00;;;4.57;;
66721;SDS011;53633;49.932;10.884;2022-08-19T14:20:28;12.50;;;5.47;;
66721;SDS011;53633;49.932;10.884;2022-08-19T14:22:55;8.73;;;4.70;;